Alice Town, Bahamas

12:18 PM EDT on September 03, 2015 (GMT -0400)
IBIMINIA2 | | Change Station
CLOSE
Current Station
Personal Weather Station
Location: Alice Town, BIMINI
Elevation: 0 ft
Nearby Weather Stations

Elev 0 ft 25.73 °N, 79.30 °W | Updated 11 minutes ago

Mostly Cloudy
Mostly Cloudy
90.8 °F
Feels Like 106 °F
N
2.0
Wind Variable Wind from NW

Today
High -- | Low -- °F
--% Chance of Precip.
Yesterday
High -- | Low -- °F
Precip. -- in
6:58 AM 7:34 PM
Waning Gibbous, 69% visible
Pressure 29.99 in
Visibility 10.0 miles
Clouds Scattered Clouds 3700 ft
Mostly Cloudy 4900 ft
Mostly Cloudy 25000 ft
Heat Index 106 °F
Dew Point 78 °F
Humidity 66%
Rainfall 0.00 in
Snow Depth Not available.
UV 7 out of 12
Pollen Not available.
Air Quality Not available.
Flu Activity Not available.
METAR KFLL 031553Z 00000KT 10SM SCT037 BKN049 BKN250 31/23 A2999 RMK AO2 SLP154 T03110233
Pressure 29.99 in
Visibility 10.0 miles
Clouds Scattered Clouds 3700 ft
Mostly Cloudy 4900 ft
Mostly Cloudy 25000 ft
Heat Index 106 °F
Dew Point 78 °F
Humidity 66%
Rainfall 0.00 in
Snow Depth Not available.
UV 7 out of 12
Pollen Not available.
Air Quality Not available.
Flu Activity Not available.
METAR KFLL 031553Z 00000KT 10SM SCT037 BKN049 BKN250 31/23 A2999 RMK AO2 SLP154 T03110233

10-Day Weather Forecast

×

Almanac

Astronomy

Sep. 03, 2015 Rise Set
Actual Time
Civil Twilight
Nautical Twilight
Astronomical Twilight
Moon
Length of Visible Light
Length of Day
Tomorrow will be .
, % of the Moon is Illuminated

Today's Extremes

Country Highs Country Lows

Community

WunderPhotos

Upload Photos

1,851,985 photos uploaded!

WunderBlogs® & News

Nearby

Air Quality

  Air Quality AQ Index Pollutant
Not available.

Snow Depth

Station Depth Elevation

Earthquake Activity

City Distance Mag. Time & Date
Minimum magnitude displayed is 2.5.

Coastal Water Temperatures

Place Temperature

Stations

Nearby Weather Stations

Station Location Temp. Windchill Dew Point Humidity Wind Precip. Elev Updated Type